sensor_id;sensor_type;location;lat;lon;timestamp;P1;durP1;ratioP1;P2;durP2;ratioP2
52494;SDS011;38405;53.212;5.660;2022-11-15T00:02:09;27.98;;;18.45;;
52494;SDS011;38405;53.212;5.660;2022-11-15T00:04:34;27.05;;;17.45;;
52494;SDS011;38405;53.212;5.660;2022-11-15T00:07:00;23.75;;;16.95;;
52494;SDS011;38405;53.212;5.660;2022-11-15T00:09:25;26.55;;;17.33;;
52494;SDS011;38405;53.212;5.660;2022-11-15T00:11:51;24.90;;;17.65;;
52494;SDS011;38405;53.212;5.660;2022-11-15T00:14:17;23.92;;;17.45;;
52494;SDS011;38405;53.212;5.660;2022-11-15T00:16:42;30.42;;;18.23;;
52494;SDS011;38405;53.212;5.660;2022-11-15T00:19:08;24.67;;;17.38;;
52494;SDS011;38405;53.212;5.660;2022-11-15T00:21:34;25.65;;;17.40;;
52494;SDS011;38405;53.212;5.660;2022-11-15T00:24:00;27.20;;;18.30;;
52494;SDS011;38405;53.212;5.660;2022-11-15T00:26:25;27.52;;;17.85;;
52494;SDS011;38405;53.212;5.660;2022-11-15T00:28:54;26.80;;;18.45;;
52494;SDS011;38405;53.212;5.660;2022-11-15T00:31:19;26.33;;;18.02;;
52494;SDS011;38405;53.212;5.660;2022-11-15T00:33:45;29.73;;;19.23;;
52494;SDS011;38405;53.212;5.660;2022-11-15T00:36:11;29.92;;;19.65;;
52494;SDS011;38405;53.212;5.660;2022-11-15T00:38:37;27.00;;;19.10;;
52494;SDS011;38405;53.212;5.660;2022-11-15T00:41:05;32.83;;;19.75;;
52494;SDS011;38405;53.212;5.660;2022-11-15T00:43:31;33.80;;;20.88;;
52494;SDS011;38405;53.212;5.660;2022-11-15T00:45:58;31.48;;;20.98;;
52494;SDS011;38405;53.212;5.660;2022-11-15T00:48:23;29.58;;;19.90;;
52494;SDS011;38405;53.212;5.660;2022-11-15T00:50:49;27.90;;;20.05;;
52494;SDS011;38405;53.212;5.660;2022-11-15T00:53:15;29.10;;;20.30;;
52494;SDS011;38405;53.212;5.660;2022-11-15T00:55:41;29.42;;;20.90;;
52494;SDS011;38405;53.212;5.660;2022-11-15T00:58:07;27.13;;;19.45;;
52494;SDS011;38405;53.212;5.660;2022-11-15T01:00:32;32.80;;;20.92;;
52494;SDS011;38405;53.212;5.660;2022-11-15T01:02:59;32.45;;;21.15;;
52494;SDS011;38405;53.212;5.660;2022-11-15T01:05:26;33.15;;;21.73;;
52494;SDS011;38405;53.212;5.660;2022-11-15T01:07:52;31.63;;;21.27;;
52494;SDS011;38405;53.212;5.660;2022-11-15T01:10:19;30.75;;;20.92;;
52494;SDS011;38405;53.212;5.660;2022-11-15T01:12:45;33.65;;;21.85;;
52494;SDS011;38405;53.212;5.660;2022-11-15T01:15:11;27.05;;;20.05;;
52494;SDS011;38405;53.212;5.660;2022-11-15T01:17:37;35.38;;;22.02;;
52494;SDS011;38405;53.212;5.660;2022-11-15T01:20:03;34.50;;;22.65;;
52494;SDS011;38405;53.212;5.660;2022-11-15T01:22:28;30.98;;;21.52;;
52494;SDS011;38405;53.212;5.660;2022-11-15T01:24:54;29.65;;;20.77;;
52494;SDS011;38405;53.212;5.660;2022-11-15T01:27:20;32.75;;;22.35;;
52494;SDS011;38405;53.212;5.660;2022-11-15T01:29:45;35.13;;;22.65;;
52494;SDS011;38405;53.212;5.660;2022-11-15T01:32:11;32.05;;;21.95;;
52494;SDS011;38405;53.212;5.660;2022-11-15T01:34:36;35.72;;;23.88;;
52494;SDS011;38405;53.212;5.660;2022-11-15T01:37:02;35.92;;;23.25;;
52494;SDS011;38405;53.212;5.660;2022-11-15T01:39:28;42.03;;;25.10;;
52494;SDS011;38405;53.212;5.660;2022-11-15T01:41:53;36.70;;;22.63;;
52494;SDS011;38405;53.212;5.660;2022-11-15T01:44:34;35.47;;;23.75;;
52494;SDS011;38405;53.212;5.660;2022-11-15T01:49:41;39.40;;;24.38;;
52494;SDS011;38405;53.212;5.660;2022-11-15T01:52:20;38.08;;;24.73;;
52494;SDS011;38405;53.212;5.660;2022-11-15T01:54:50;41.78;;;25.35;;
52494;SDS011;38405;53.212;5.660;2022-11-15T01:57:18;41.40;;;25.63;;
52494;SDS011;38405;53.212;5.660;2022-11-15T01:59:44;38.22;;;23.80;;
52494;SDS011;38405;53.212;5.660;2022-11-15T02:02:11;43.50;;;26.23;;
52494;SDS011;38405;53.212;5.660;2022-11-15T02:04:41;41.25;;;24.60;;
52494;SDS011;38405;53.212;5.660;2022-11-15T02:07:12;38.85;;;24.95;;
52494;SDS011;38405;53.212;5.660;2022-11-15T02:09:40;39.33;;;23.88;;
52494;SDS011;38405;53.212;5.660;2022-11-15T02:12:06;39.55;;;24.50;;
52494;SDS011;38405;53.212;5.660;2022-11-15T02:14:34;45.05;;;25.75;;
52494;SDS011;38405;53.212;5.660;2022-11-15T02:19:40;45.95;;;24.50;;
52494;SDS011;38405;53.212;5.660;2022-11-15T02:25:22;43.75;;;25.48;;
52494;SDS011;38405;53.212;5.660;2022-11-15T02:34:38;46.30;;;27.95;;
52494;SDS011;38405;53.212;5.660;2022-11-15T02:40:21;43.97;;;24.70;;
52494;SDS011;38405;53.212;5.660;2022-11-15T02:42:50;46.78;;;26.17;;
52494;SDS011;38405;53.212;5.660;2022-11-15T02:45:40;45.65;;;26.13;;
52494;SDS011;38405;53.212;5.660;2022-11-15T02:48:10;41.88;;;25.70;;
52494;SDS011;38405;53.212;5.660;2022-11-15T02:50:37;44.85;;;26.45;;
52494;SDS011;38405;53.212;5.660;2022-11-15T02:53:03;45.28;;;26.30;;
52494;SDS011;38405;53.212;5.660;2022-11-15T03:00:47;44.28;;;23.40;;
52494;SDS011;38405;53.212;5.660;2022-11-15T03:03:33;46.75;;;26.15;;
52494;SDS011;38405;53.212;5.660;2022-11-15T03:06:41;48.03;;;25.88;;
52494;SDS011;38405;53.212;5.660;2022-11-15T03:09:33;50.05;;;26.52;;
52494;SDS011;38405;53.212;5.660;2022-11-15T03:12:20;49.65;;;26.50;;
52494;SDS011;38405;53.212;5.660;2022-11-15T03:15:06;44.42;;;24.75;;
52494;SDS011;38405;53.212;5.660;2022-11-15T03:17:43;49.58;;;24.83;;
52494;SDS011;38405;53.212;5.660;2022-11-15T03:20:19;50.97;;;27.58;;
52494;SDS011;38405;53.212;5.660;2022-11-15T03:22:45;53.97;;;27.20;;
52494;SDS011;38405;53.212;5.660;2022-11-15T03:25:13;66.57;;;29.27;;
52494;SDS011;38405;53.212;5.660;2022-11-15T03:30:14;68.57;;;30.00;;
52494;SDS011;38405;53.212;5.660;2022-11-15T03:32:44;73.65;;;28.92;;
52494;SDS011;38405;53.212;5.660;2022-11-15T03:35:21;80.88;;;31.08;;
52494;SDS011;38405;53.212;5.660;2022-11-15T03:40:22;76.47;;;29.33;;
52494;SDS011;38405;53.212;5.660;2022-11-15T03:43:43;85.78;;;30.45;;
52494;SDS011;38405;53.212;5.660;2022-11-15T03:45:51;86.25;;;30.27;;
52494;SDS011;38405;53.212;5.660;2022-11-15T03:48:26;81.97;;;31.02;;
52494;SDS011;38405;53.212;5.660;2022-11-15T03:50:55;75.70;;;29.38;;
52494;SDS011;38405;53.212;5.660;2022-11-15T03:53:21;87.45;;;29.75;;
52494;SDS011;38405;53.212;5.660;2022-11-15T03:55:47;95.85;;;31.13;;
52494;SDS011;38405;53.212;5.660;2022-11-15T03:58:12;89.10;;;29.42;;
52494;SDS011;38405;53.212;5.660;2022-11-15T04:00:38;83.00;;;28.85;;
52494;SDS011;38405;53.212;5.660;2022-11-15T04:03:03;118.95;;;31.95;;
52494;SDS011;38405;53.212;5.660;2022-11-15T04:05:29;99.60;;;32.67;;
52494;SDS011;38405;53.212;5.660;2022-11-15T04:07:55;85.70;;;29.77;;
52494;SDS011;38405;53.212;5.660;2022-11-15T04:10:20;118.25;;;33.17;;
52494;SDS011;38405;53.212;5.660;2022-11-15T04:12:46;101.28;;;30.55;;
52494;SDS011;38405;53.212;5.660;2022-11-15T04:15:16;107.10;;;30.80;;
52494;SDS011;38405;53.212;5.660;2022-11-15T04:17:47;102.18;;;32.42;;
52494;SDS011;38405;53.212;5.660;2022-11-15T04:20:22;126.55;;;30.83;;
52494;SDS011;38405;53.212;5.660;2022-11-15T04:23:27;123.80;;;31.83;;
52494;SDS011;38405;53.212;5.660;2022-11-15T04:26:11;122.57;;;30.75;;
52494;SDS011;38405;53.212;5.660;2022-11-15T04:28:41;125.95;;;33.05;;
52494;SDS011;38405;53.212;5.660;2022-11-15T04:31:28;111.05;;;31.42;;
52494;SDS011;38405;53.212;5.660;2022-11-15T04:33:55;112.72;;;30.40;;
52494;SDS011;38405;53.212;5.660;2022-11-15T04:36:21;99.15;;;30.50;;
52494;SDS011;38405;53.212;5.660;2022-11-15T04:39:05;104.63;;;30.65;;
52494;SDS011;38405;53.212;5.660;2022-11-15T04:41:31;117.95;;;32.35;;
52494;SDS011;38405;53.212;5.660;2022-11-15T04:43:57;110.82;;;32.45;;
52494;SDS011;38405;53.212;5.660;2022-11-15T04:46:23;106.03;;;30.73;;
52494;SDS011;38405;53.212;5.660;2022-11-15T04:48:49;101.60;;;29.30;;
52494;SDS011;38405;53.212;5.660;2022-11-15T04:51:15;115.22;;;31.67;;
52494;SDS011;38405;53.212;5.660;2022-11-15T04:53:41;105.88;;;30.65;;
52494;SDS011;38405;53.212;5.660;2022-11-15T04:56:07;116.20;;;31.40;;
52494;SDS011;38405;53.212;5.660;2022-11-15T04:58:32;108.55;;;30.83;;
52494;SDS011;38405;53.212;5.660;2022-11-15T05:01:05;95.50;;;28.88;;
52494;SDS011;38405;53.212;5.660;2022-11-15T05:03:32;83.63;;;27.50;;
52494;SDS011;38405;53.212;5.660;2022-11-15T05:06:17;86.63;;;27.83;;
52494;SDS011;38405;53.212;5.660;2022-11-15T05:08:42;87.25;;;28.65;;
52494;SDS011;38405;53.212;5.660;2022-11-15T05:11:08;86.35;;;29.20;;
52494;SDS011;38405;53.212;5.660;2022-11-15T05:13:33;110.13;;;30.65;;
52494;SDS011;38405;53.212;5.660;2022-11-15T05:15:59;90.90;;;29.52;;
52494;SDS011;38405;53.212;5.660;2022-11-15T05:18:25;99.72;;;29.02;;
52494;SDS011;38405;53.212;5.660;2022-11-15T05:20:50;98.53;;;30.42;;
52494;SDS011;38405;53.212;5.660;2022-11-15T05:23:16;114.93;;;30.05;;
52494;SDS011;38405;53.212;5.660;2022-11-15T05:25:41;142.55;;;30.98;;
52494;SDS011;38405;53.212;5.660;2022-11-15T05:28:07;119.63;;;30.08;;
52494;SDS011;38405;53.212;5.660;2022-11-15T05:30:33;152.10;;;31.13;;
52494;SDS011;38405;53.212;5.660;2022-11-15T05:32:58;158.93;;;33.78;;
52494;SDS011;38405;53.212;5.660;2022-11-15T05:35:38;172.38;;;32.95;;
52494;SDS011;38405;53.212;5.660;2022-11-15T05:38:06;157.88;;;32.03;;
52494;SDS011;38405;53.212;5.660;2022-11-15T05:40:32;169.40;;;33.85;;
52494;SDS011;38405;53.212;5.660;2022-11-15T05:42:59;155.80;;;33.55;;
52494;SDS011;38405;53.212;5.660;2022-11-15T05:45:26;152.27;;;31.92;;
52494;SDS011;38405;53.212;5.660;2022-11-15T05:47:53;159.18;;;32.03;;
52494;SDS011;38405;53.212;5.660;2022-11-15T05:50:20;149.60;;;32.35;;
52494;SDS011;38405;53.212;5.660;2022-11-15T05:52:46;196.70;;;33.65;;
52494;SDS011;38405;53.212;5.660;2022-11-15T05:55:12;177.13;;;31.98;;
52494;SDS011;38405;53.212;5.660;2022-11-15T05:57:38;155.32;;;32.92;;
52494;SDS011;38405;53.212;5.660;2022-11-15T06:00:04;155.20;;;33.17;;
52494;SDS011;38405;53.212;5.660;2022-11-15T06:02:30;112.38;;;29.10;;
52494;SDS011;38405;53.212;5.660;2022-11-15T06:04:56;124.32;;;32.03;;
52494;SDS011;38405;53.212;5.660;2022-11-15T06:07:22;122.57;;;31.38;;
52494;SDS011;38405;53.212;5.660;2022-11-15T06:09:48;113.47;;;31.25;;
52494;SDS011;38405;53.212;5.660;2022-11-15T06:12:13;127.95;;;33.08;;
52494;SDS011;38405;53.212;5.660;2022-11-15T06:14:39;156.38;;;33.22;;
52494;SDS011;38405;53.212;5.660;2022-11-15T06:17:04;112.68;;;32.60;;
52494;SDS011;38405;53.212;5.660;2022-11-15T06:19:30;124.07;;;32.15;;
52494;SDS011;38405;53.212;5.660;2022-11-15T06:21:58;108.07;;;31.15;;
52494;SDS011;38405;53.212;5.660;2022-11-15T06:24:27;105.82;;;31.40;;
52494;SDS011;38405;53.212;5.660;2022-11-15T06:26:53;102.40;;;31.25;;
52494;SDS011;38405;53.212;5.660;2022-11-15T06:29:19;103.18;;;30.90;;
52494;SDS011;38405;53.212;5.660;2022-11-15T06:31:44;118.45;;;31.42;;
52494;SDS011;38405;53.212;5.660;2022-11-15T06:34:13;129.77;;;33.30;;
52494;SDS011;38405;53.212;5.660;2022-11-15T06:36:38;118.45;;;33.72;;
52494;SDS011;38405;53.212;5.660;2022-11-15T06:39:10;132.75;;;35.40;;
52494;SDS011;38405;53.212;5.660;2022-11-15T06:41:37;125.50;;;35.42;;
52494;SDS011;38405;53.212;5.660;2022-11-15T06:44:03;134.70;;;35.60;;
52494;SDS011;38405;53.212;5.660;2022-11-15T06:46:28;146.05;;;36.72;;
52494;SDS011;38405;53.212;5.660;2022-11-15T06:48:54;116.38;;;32.60;;
52494;SDS011;38405;53.212;5.660;2022-11-15T06:51:22;124.03;;;34.83;;
52494;SDS011;38405;53.212;5.660;2022-11-15T06:53:48;103.78;;;34.55;;
52494;SDS011;38405;53.212;5.660;2022-11-15T06:56:16;112.35;;;35.72;;
52494;SDS011;38405;53.212;5.660;2022-11-15T06:58:42;111.00;;;35.25;;
52494;SDS011;38405;53.212;5.660;2022-11-15T07:01:08;128.02;;;35.78;;
52494;SDS011;38405;53.212;5.660;2022-11-15T07:03:39;109.05;;;35.17;;
52494;SDS011;38405;53.212;5.660;2022-11-15T07:06:06;94.95;;;33.90;;
52494;SDS011;38405;53.212;5.660;2022-11-15T07:08:33;123.07;;;37.22;;
52494;SDS011;38405;53.212;5.660;2022-11-15T07:11:00;107.05;;;35.20;;
52494;SDS011;38405;53.212;5.660;2022-11-15T07:13:29;113.40;;;35.45;;
52494;SDS011;38405;53.212;5.660;2022-11-15T07:15:58;124.20;;;39.47;;
52494;SDS011;38405;53.212;5.660;2022-11-15T07:18:26;117.82;;;35.92;;
52494;SDS011;38405;53.212;5.660;2022-11-15T07:20:52;112.85;;;36.38;;
52494;SDS011;38405;53.212;5.660;2022-11-15T07:23:18;112.63;;;37.65;;
52494;SDS011;38405;53.212;5.660;2022-11-15T07:25:43;98.60;;;33.50;;
52494;SDS011;38405;53.212;5.660;2022-11-15T07:28:09;115.15;;;38.45;;
52494;SDS011;38405;53.212;5.660;2022-11-15T07:30:34;110.35;;;34.85;;
52494;SDS011;38405;53.212;5.660;2022-11-15T07:33:00;114.00;;;37.85;;
52494;SDS011;38405;53.212;5.660;2022-11-15T07:35:26;91.80;;;35.08;;
52494;SDS011;38405;53.212;5.660;2022-11-15T07:37:54;97.72;;;34.63;;
52494;SDS011;38405;53.212;5.660;2022-11-15T07:40:21;84.85;;;33.15;;
52494;SDS011;38405;53.212;5.660;2022-11-15T07:42:47;86.90;;;34.97;;
52494;SDS011;38405;53.212;5.660;2022-11-15T07:45:23;81.87;;;33.53;;
52494;SDS011;38405;53.212;5.660;2022-11-15T07:47:51;69.53;;;31.98;;
52494;SDS011;38405;53.212;5.660;2022-11-15T07:50:17;85.72;;;34.95;;
52494;SDS011;38405;53.212;5.660;2022-11-15T07:52:43;76.32;;;33.67;;
52494;SDS011;38405;53.212;5.660;2022-11-15T07:55:09;77.13;;;33.60;;
52494;SDS011;38405;53.212;5.660;2022-11-15T07:57:34;73.15;;;31.08;;
52494;SDS011;38405;53.212;5.660;2022-11-15T08:00:00;75.38;;;32.08;;
52494;SDS011;38405;53.212;5.660;2022-11-15T08:02:26;73.53;;;31.40;;
52494;SDS011;38405;53.212;5.660;2022-11-15T08:04:52;69.72;;;32.33;;
52494;SDS011;38405;53.212;5.660;2022-11-15T08:07:17;73.78;;;31.77;;
52494;SDS011;38405;53.212;5.660;2022-11-15T08:09:43;60.75;;;30.58;;
52494;SDS011;38405;53.212;5.660;2022-11-15T08:12:08;59.70;;;30.73;;
52494;SDS011;38405;53.212;5.660;2022-11-15T08:14:34;60.92;;;31.27;;
52494;SDS011;38405;53.212;5.660;2022-11-15T08:17:00;58.72;;;30.15;;
52494;SDS011;38405;53.212;5.660;2022-11-15T08:19:29;61.75;;;32.00;;
52494;SDS011;38405;53.212;5.660;2022-11-15T08:21:54;60.17;;;31.30;;
52494;SDS011;38405;53.212;5.660;2022-11-15T08:24:20;60.30;;;30.23;;
52494;SDS011;38405;53.212;5.660;2022-11-15T08:26:46;52.53;;;26.63;;
52494;SDS011;38405;53.212;5.660;2022-11-15T08:29:12;52.15;;;27.40;;
52494;SDS011;38405;53.212;5.660;2022-11-15T08:31:37;43.45;;;25.40;;
52494;SDS011;38405;53.212;5.660;2022-11-15T08:34:04;61.70;;;27.17;;
52494;SDS011;38405;53.212;5.660;2022-11-15T08:36:30;58.47;;;26.90;;
52494;SDS011;38405;53.212;5.660;2022-11-15T08:38:56;48.28;;;26.75;;
52494;SDS011;38405;53.212;5.660;2022-11-15T08:41:26;50.75;;;28.45;;
52494;SDS011;38405;53.212;5.660;2022-11-15T08:43:56;46.97;;;27.20;;
52494;SDS011;38405;53.212;5.660;2022-11-15T08:46:22;48.28;;;26.85;;
52494;SDS011;38405;53.212;5.660;2022-11-15T08:48:47;44.17;;;25.55;;
52494;SDS011;38405;53.212;5.660;2022-11-15T08:51:13;45.97;;;26.35;;
52494;SDS011;38405;53.212;5.660;2022-11-15T08:53:39;43.58;;;25.65;;
52494;SDS011;38405;53.212;5.660;2022-11-15T08:56:08;47.60;;;26.15;;
52494;SDS011;38405;53.212;5.660;2022-11-15T08:58:35;39.95;;;25.50;;
52494;SDS011;38405;53.212;5.660;2022-11-15T09:01:01;39.70;;;24.30;;
52494;SDS011;38405;53.212;5.660;2022-11-15T09:03:26;44.83;;;24.48;;
52494;SDS011;38405;53.212;5.660;2022-11-15T09:05:56;38.97;;;24.55;;
52494;SDS011;38405;53.212;5.660;2022-11-15T09:08:22;36.33;;;23.45;;
52494;SDS011;38405;53.212;5.660;2022-11-15T09:10:49;39.22;;;24.30;;
52494;SDS011;38405;53.212;5.660;2022-11-15T09:13:15;35.60;;;24.13;;
52494;SDS011;38405;53.212;5.660;2022-11-15T09:15:41;36.17;;;23.33;;
52494;SDS011;38405;53.212;5.660;2022-11-15T09:18:06;37.00;;;24.20;;
52494;SDS011;38405;53.212;5.660;2022-11-15T09:20:32;38.50;;;22.70;;
52494;SDS011;38405;53.212;5.660;2022-11-15T09:23:01;37.60;;;23.25;;
52494;SDS011;38405;53.212;5.660;2022-11-15T09:25:28;36.83;;;22.70;;
52494;SDS011;38405;53.212;5.660;2022-11-15T09:27:54;29.90;;;21.75;;
52494;SDS011;38405;53.212;5.660;2022-11-15T09:30:20;34.03;;;23.33;;
52494;SDS011;38405;53.212;5.660;2022-11-15T09:32:46;36.35;;;22.67;;
52494;SDS011;38405;53.212;5.660;2022-11-15T09:35:11;33.25;;;22.30;;
52494;SDS011;38405;53.212;5.660;2022-11-15T09:37:40;31.70;;;21.38;;
52494;SDS011;38405;53.212;5.660;2022-11-15T09:40:13;31.25;;;22.42;;
52494;SDS011;38405;53.212;5.660;2022-11-15T09:42:46;31.35;;;21.13;;
52494;SDS011;38405;53.212;5.660;2022-11-15T09:45:23;31.38;;;22.38;;
52494;SDS011;38405;53.212;5.660;2022-11-15T09:50:49;30.80;;;20.77;;
52494;SDS011;38405;53.212;5.660;2022-11-15T09:53:27;33.92;;;20.98;;
52494;SDS011;38405;53.212;5.660;2022-11-15T09:58:44;30.92;;;21.13;;
52494;SDS011;38405;53.212;5.660;2022-11-15T10:04:14;27.58;;;20.30;;
52494;SDS011;38405;53.212;5.660;2022-11-15T10:06:42;32.72;;;21.05;;
52494;SDS011;38405;53.212;5.660;2022-11-15T10:09:13;27.15;;;20.98;;
52494;SDS011;38405;53.212;5.660;2022-11-15T10:12:09;31.40;;;20.60;;
52494;SDS011;38405;53.212;5.660;2022-11-15T10:14:37;29.80;;;20.88;;
52494;SDS011;38405;53.212;5.660;2022-11-15T10:24:46;27.95;;;20.67;;
52494;SDS011;38405;53.212;5.660;2022-11-15T10:27:16;29.00;;;20.23;;
52494;SDS011;38405;53.212;5.660;2022-11-15T10:29:45;27.83;;;20.42;;
52494;SDS011;38405;53.212;5.660;2022-11-15T10:32:12;32.55;;;19.48;;
52494;SDS011;38405;53.212;5.660;2022-11-15T10:34:39;32.42;;;20.52;;
52494;SDS011;38405;53.212;5.660;2022-11-15T10:37:05;28.25;;;20.17;;
52494;SDS011;38405;53.212;5.660;2022-11-15T10:39:31;29.30;;;19.63;;
52494;SDS011;38405;53.212;5.660;2022-11-15T10:41:58;32.55;;;19.42;;
52494;SDS011;38405;53.212;5.660;2022-11-15T10:44:50;27.48;;;18.08;;
52494;SDS011;38405;53.212;5.660;2022-11-15T10:47:37;27.67;;;19.38;;
52494;SDS011;38405;53.212;5.660;2022-11-15T10:50:47;27.90;;;19.58;;
52494;SDS011;38405;53.212;5.660;2022-11-15T10:52:57;28.23;;;17.98;;
52494;SDS011;38405;53.212;5.660;2022-11-15T10:55:27;27.92;;;18.08;;
52494;SDS011;38405;53.212;5.660;2022-11-15T10:58:03;25.30;;;17.77;;
52494;SDS011;38405;53.212;5.660;2022-11-15T11:03:00;25.10;;;18.48;;
52494;SDS011;38405;53.212;5.660;2022-11-15T11:08:02;25.65;;;16.50;;
52494;SDS011;38405;53.212;5.660;2022-11-15T11:10:28;23.73;;;16.40;;
52494;SDS011;38405;53.212;5.660;2022-11-15T11:12:55;24.92;;;16.30;;
52494;SDS011;38405;53.212;5.660;2022-11-15T11:15:21;26.15;;;16.88;;
52494;SDS011;38405;53.212;5.660;2022-11-15T11:17:56;22.50;;;16.02;;
52494;SDS011;38405;53.212;5.660;2022-11-15T11:20:38;24.95;;;14.88;;
52494;SDS011;38405;53.212;5.660;2022-11-15T11:25:51;26.02;;;15.38;;
52494;SDS011;38405;53.212;5.660;2022-11-15T11:31:38;20.77;;;14.00;;
52494;SDS011;38405;53.212;5.660;2022-11-15T11:42:35;22.35;;;13.70;;
52494;SDS011;38405;53.212;5.660;2022-11-15T11:48:04;19.55;;;13.05;;
52494;SDS011;38405;53.212;5.660;2022-11-15T11:50:48;18.15;;;12.93;;
52494;SDS011;38405;53.212;5.660;2022-11-15T11:55:49;15.18;;;11.48;;
52494;SDS011;38405;53.212;5.660;2022-11-15T12:00:54;13.25;;;10.43;;
52494;SDS011;38405;53.212;5.660;2022-11-15T12:03:34;17.25;;;10.48;;
52494;SDS011;38405;53.212;5.660;2022-11-15T12:08:58;14.55;;;10.00;;
52494;SDS011;38405;53.212;5.660;2022-11-15T12:14:33;14.73;;;9.50;;
52494;SDS011;38405;53.212;5.660;2022-11-15T12:17:01;13.23;;;9.90;;
52494;SDS011;38405;53.212;5.660;2022-11-15T12:19:28;15.68;;;9.88;;
52494;SDS011;38405;53.212;5.660;2022-11-15T12:21:57;15.70;;;9.50;;
52494;SDS011;38405;53.212;5.660;2022-11-15T12:24:29;16.38;;;9.80;;
52494;SDS011;38405;53.212;5.660;2022-11-15T12:29:48;15.32;;;9.10;;
52494;SDS011;38405;53.212;5.660;2022-11-15T12:34:53;12.40;;;5.95;;
52494;SDS011;38405;53.212;5.660;2022-11-15T12:44:56;11.38;;;5.53;;
52494;SDS011;38405;53.212;5.660;2022-11-15T12:47:24;11.88;;;5.13;;
52494;SDS011;38405;53.212;5.660;2022-11-15T12:49:51;6.70;;;4.70;;
52494;SDS011;38405;53.212;5.660;2022-11-15T12:52:17;6.40;;;4.25;;
52494;SDS011;38405;53.212;5.660;2022-11-15T12:54:51;6.00;;;4.20;;
52494;SDS011;38405;53.212;5.660;2022-11-15T12:57:22;8.30;;;4.68;;
52494;SDS011;38405;53.212;5.660;2022-11-15T12:59:56;8.32;;;4.30;;
52494;SDS011;38405;53.212;5.660;2022-11-15T13:03:12;6.15;;;4.20;;
52494;SDS011;38405;53.212;5.660;2022-11-15T13:05:52;5.65;;;3.90;;
52494;SDS011;38405;53.212;5.660;2022-11-15T13:08:40;8.60;;;3.83;;
52494;SDS011;38405;53.212;5.660;2022-11-15T13:17:28;6.97;;;3.78;;
52494;SDS011;38405;53.212;5.660;2022-11-15T13:22:26;6.13;;;3.67;;
52494;SDS011;38405;53.212;5.660;2022-11-15T13:25:15;7.18;;;4.00;;
52494;SDS011;38405;53.212;5.660;2022-11-15T13:27:44;6.35;;;3.72;;
52494;SDS011;38405;53.212;5.660;2022-11-15T13:30:22;6.82;;;3.40;;
52494;SDS011;38405;53.212;5.660;2022-11-15T13:32:49;5.40;;;3.38;;
52494;SDS011;38405;53.212;5.660;2022-11-15T13:35:36;4.72;;;3.13;;
52494;SDS011;38405;53.212;5.660;2022-11-15T13:38:17;4.60;;;3.10;;
52494;SDS011;38405;53.212;5.660;2022-11-15T13:40:51;5.38;;;3.47;;
52494;SDS011;38405;53.212;5.660;2022-11-15T13:48:39;7.00;;;3.63;;
52494;SDS011;38405;53.212;5.660;2022-11-15T13:51:08;5.57;;;3.60;;
52494;SDS011;38405;53.212;5.660;2022-11-15T13:56:06;6.75;;;3.58;;
52494;SDS011;38405;53.212;5.660;2022-11-15T13:58:32;8.77;;;3.90;;
52494;SDS011;38405;53.212;5.660;2022-11-15T14:01:02;5.47;;;3.70;;
52494;SDS011;38405;53.212;5.660;2022-11-15T14:03:31;5.15;;;3.38;;
52494;SDS011;38405;53.212;5.660;2022-11-15T14:06:09;4.18;;;3.35;;
52494;SDS011;38405;53.212;5.660;2022-11-15T14:08:40;8.23;;;3.80;;
52494;SDS011;38405;53.212;5.660;2022-11-15T14:11:18;4.93;;;3.60;;
52494;SDS011;38405;53.212;5.660;2022-11-15T14:16:33;5.43;;;4.03;;
52494;SDS011;38405;53.212;5.660;2022-11-15T14:19:01;5.80;;;4.15;;
52494;SDS011;38405;53.212;5.660;2022-11-15T14:21:27;7.50;;;4.70;;
52494;SDS011;38405;53.212;5.660;2022-11-15T14:23:53;7.28;;;4.68;;
52494;SDS011;38405;53.212;5.660;2022-11-15T14:26:38;6.60;;;4.40;;
52494;SDS011;38405;53.212;5.660;2022-11-15T14:34:41;9.48;;;4.05;;
52494;SDS011;38405;53.212;5.660;2022-11-15T14:37:28;6.45;;;4.00;;
52494;SDS011;38405;53.212;5.660;2022-11-15T14:39:53;5.97;;;4.10;;
52494;SDS011;38405;53.212;5.660;2022-11-15T14:42:20;7.88;;;3.95;;
52494;SDS011;38405;53.212;5.660;2022-11-15T14:44:49;4.78;;;3.75;;
52494;SDS011;38405;53.212;5.660;2022-11-15T14:47:15;5.13;;;3.50;;
52494;SDS011;38405;53.212;5.660;2022-11-15T14:49:41;6.28;;;4.25;;
52494;SDS011;38405;53.212;5.660;2022-11-15T14:52:11;6.10;;;4.25;;
52494;SDS011;38405;53.212;5.660;2022-11-15T14:54:42;4.45;;;3.30;;
52494;SDS011;38405;53.212;5.660;2022-11-15T14:57:07;5.53;;;3.03;;
52494;SDS011;38405;53.212;5.660;2022-11-15T14:59:33;7.15;;;3.42;;
52494;SDS011;38405;53.212;5.660;2022-11-15T15:01:58;8.38;;;3.30;;
52494;SDS011;38405;53.212;5.660;2022-11-15T15:04:24;7.15;;;3.05;;
52494;SDS011;38405;53.212;5.660;2022-11-15T15:06:51;5.80;;;3.47;;
52494;SDS011;38405;53.212;5.660;2022-11-15T15:09:16;6.05;;;2.80;;
52494;SDS011;38405;53.212;5.660;2022-11-15T15:11:43;7.65;;;3.00;;
52494;SDS011;38405;53.212;5.660;2022-11-15T15:14:09;10.15;;;2.85;;
52494;SDS011;38405;53.212;5.660;2022-11-15T15:16:35;5.07;;;2.85;;
52494;SDS011;38405;53.212;5.660;2022-11-15T15:19:01;7.25;;;3.13;;
52494;SDS011;38405;53.212;5.660;2022-11-15T15:21:27;5.47;;;3.22;;
52494;SDS011;38405;53.212;5.660;2022-11-15T15:23:53;5.38;;;3.10;;
52494;SDS011;38405;53.212;5.660;2022-11-15T15:26:20;5.35;;;3.17;;
52494;SDS011;38405;53.212;5.660;2022-11-15T15:28:46;5.28;;;3.30;;
52494;SDS011;38405;53.212;5.660;2022-11-15T15:31:13;3.38;;;2.60;;
52494;SDS011;38405;53.212;5.660;2022-11-15T15:33:39;8.05;;;2.90;;
52494;SDS011;38405;53.212;5.660;2022-11-15T15:36:08;5.40;;;3.28;;
52494;SDS011;38405;53.212;5.660;2022-11-15T15:38:38;4.13;;;3.00;;
52494;SDS011;38405;53.212;5.660;2022-11-15T15:41:12;3.67;;;3.17;;
52494;SDS011;38405;53.212;5.660;2022-11-15T15:43:39;5.10;;;3.35;;
52494;SDS011;38405;53.212;5.660;2022-11-15T15:46:11;5.38;;;3.05;;
52494;SDS011;38405;53.212;5.660;2022-11-15T15:48:41;5.07;;;3.03;;
52494;SDS011;38405;53.212;5.660;2022-11-15T15:51:07;5.20;;;3.40;;
52494;SDS011;38405;53.212;5.660;2022-11-15T15:53:33;3.45;;;2.60;;
52494;SDS011;38405;53.212;5.660;2022-11-15T15:55:59;5.80;;;2.90;;
52494;SDS011;38405;53.212;5.660;2022-11-15T15:58:25;6.43;;;2.88;;
52494;SDS011;38405;53.212;5.660;2022-11-15T16:00:51;3.92;;;3.08;;
52494;SDS011;38405;53.212;5.660;2022-11-15T16:03:16;10.23;;;2.78;;
52494;SDS011;38405;53.212;5.660;2022-11-15T16:05:42;5.13;;;2.70;;
52494;SDS011;38405;53.212;5.660;2022-11-15T16:08:17;3.67;;;2.53;;
52494;SDS011;38405;53.212;5.660;2022-11-15T16:10:47;5.13;;;3.13;;
52494;SDS011;38405;53.212;5.660;2022-11-15T16:13:16;4.53;;;3.03;;
52494;SDS011;38405;53.212;5.660;2022-11-15T16:15:42;5.00;;;2.63;;
52494;SDS011;38405;53.212;5.660;2022-11-15T16:18:12;5.88;;;2.60;;
52494;SDS011;38405;53.212;5.660;2022-11-15T16:20:41;5.10;;;2.70;;
52494;SDS011;38405;53.212;5.660;2022-11-15T16:23:13;3.97;;;2.70;;
52494;SDS011;38405;53.212;5.660;2022-11-15T16:25:41;6.65;;;2.80;;
52494;SDS011;38405;53.212;5.660;2022-11-15T16:30:47;4.88;;;3.00;;
52494;SDS011;38405;53.212;5.660;2022-11-15T16:33:13;5.32;;;2.60;;
52494;SDS011;38405;53.212;5.660;2022-11-15T16:35:39;7.75;;;2.88;;
52494;SDS011;38405;53.212;5.660;2022-11-15T16:38:05;4.68;;;2.92;;